Time;durP1;ratioP1;P1;durP2;ratioP2;P2;SDS_P1;SDS_P2;PMS_P1;PMS_P2;Temp;Humidity;BMP_temperature;BMP_pressure;BME280_temperature;BME280_humidity;BME280_pressure;Samples;Min_cycle;Max_cycle;Signal;HPM_P1;HPM_P2
2021/12/06 00:01:05;;;;;;;14.35;5.75;;;;;;;2.06;100.00;100977.47;6198200;28;20107;-75
2021/12/06 00:04:09;;;;;;;8.77;4.47;;;;;;;2.06;100.00;100982.66;6198456;28;20042;-75
2021/12/06 00:07:14;;;;;;;28.35;5.57;;;;;;;2.03;100.00;100973.19;6222574;28;20068;-75
2021/12/06 00:10:16;;;;;;;6.75;3.75;;;;;;;2.08;100.00;100976.56;6222317;28;20057;-75
2021/12/06 00:13:22;;;;;;;13.40;4.65;;;;;;;2.02;100.00;100974.91;6221891;28;20050;-75
2021/12/06 00:16:24;;;;;;;10.15;4.35;;;;;;;2.00;100.00;100971.50;6222624;28;20049;-75
2021/12/06 00:19:25;;;;;;;12.32;4.93;;;;;;;2.01;100.00;100974.94;6222358;28;20056;-75
2021/12/06 00:22:27;;;;;;;11.00;5.40;;;;;;;2.05;100.00;100980.97;6222260;28;20042;-75
2021/12/06 00:25:28;;;;;;;11.45;5.47;;;;;;;1.94;100.00;100981.94;6222269;28;20442;-75
2021/12/06 00:28:31;;;;;;;10.85;5.10;;;;;;;1.93;100.00;100979.38;6222592;28;20060;-75
2021/12/06 00:31:34;;;;;;;13.60;5.72;;;;;;;1.98;100.00;100983.63;6221321;28;20042;-75
2021/12/06 00:34:38;;;;;;;13.02;4.28;;;;;;;2.04;100.00;100993.03;6222118;28;20053;-74
2021/12/06 00:37:52;;;;;;;17.50;5.68;;;;;;;1.98;100.00;100999.16;6222282;28;20076;-75
2021/12/06 00:40:53;;;;;;;16.33;7.07;;;;;;;1.92;100.00;101007.03;6221970;28;20054;-75
2021/12/06 00:43:56;;;;;;;11.43;5.88;;;;;;;1.90;100.00;101011.38;6222090;28;20052;-75
2021/12/06 00:46:58;;;;;;;16.20;6.55;;;;;;;1.94;100.00;101018.22;6222019;28;20053;-75
2021/12/06 00:49:59;;;;;;;14.98;7.00;;;;;;;1.94;100.00;101020.81;6221884;28;20054;-75
2021/12/06 00:53:01;;;;;;;20.67;7.30;;;;;;;1.92;100.00;101020.00;6221814;28;20061;-75
2021/12/06 00:56:03;;;;;;;17.73;6.50;;;;;;;1.92;100.00;101021.72;6222046;28;20053;-75
2021/12/06 00:59:05;;;;;;;16.38;6.50;;;;;;;1.88;100.00;101013.13;6222009;28;20049;-74
2021/12/06 01:02:10;;;;;;;11.98;6.00;;;;;;;1.86;100.00;101009.69;6219843;28;20050;-75
2021/12/06 01:05:12;;;;;;;21.27;7.78;;;;;;;1.83;100.00;101017.53;6214365;28;20049;-75
2021/12/06 01:08:13;;;;;;;20.98;7.65;;;;;;;1.86;100.00;101030.41;6214437;28;20050;-75
2021/12/06 01:11:15;;;;;;;23.08;8.10;;;;;;;1.88;100.00;101033.88;6217929;28;20054;-75
2021/12/06 01:14:19;;;;;;;14.02;6.95;;;;;;;1.81;100.00;101037.41;6221466;28;20046;-75
2021/12/06 01:17:20;;;;;;;17.58;7.28;;;;;;;1.86;100.00;101039.94;6221718;28;20493;-75
2021/12/06 01:20:26;;;;;;;13.43;6.82;;;;;;;1.84;100.00;101052.91;6213066;28;20418;-75
2021/12/06 01:23:40;;;;;;;14.13;5.20;;;;;;;1.86;100.00;101055.47;6197270;28;20072;-75
2021/12/06 01:27:02;;;;;;;17.15;7.15;;;;;;;1.84;100.00;101063.28;6201672;28;20046;-75
2021/12/06 01:30:24;;;;;;;17.10;7.18;;;;;;;1.84;100.00;101063.28;6201620;28;20501;-75
2021/12/06 01:33:42;;;;;;;21.13;7.97;;;;;;;1.84;100.00;101067.59;6210976;28;20076;-75
2021/12/06 01:40:04;;;;;;;18.67;7.53;;;;;;;1.84;100.00;101077.97;6201471;28;20338;-75
2021/12/06 01:43:06;;;;;;;18.48;6.60;;;;;;;1.84;100.00;101077.97;6201462;28;20046;-75
2021/12/06 01:46:09;;;;;;;14.98;6.53;;;;;;;1.85;100.00;101077.94;6201651;28;20054;-75
2021/12/06 01:49:11;;;;;;;18.77;6.18;;;;;;;1.79;100.00;101078.03;6201382;28;20069;-74
2021/12/06 01:52:17;;;;;;;17.65;6.35;;;;;;;1.76;100.00;101086.69;6201285;28;20055;-74
2021/12/06 01:55:22;;;;;;;14.07;6.28;;;;;;;1.83;100.00;101084.03;6201144;28;20050;-75
2021/12/06 01:58:23;;;;;;;15.27;6.63;;;;;;;1.81;100.00;101078.84;6201569;28;20057;-74
2021/12/06 02:01:26;;;;;;;17.25;6.45;;;;;;;1.81;100.00;101085.78;6200931;28;20050;-74
2021/12/06 02:04:29;;;;;;;13.77;5.35;;;;;;;1.82;100.00;101079.72;6202137;28;20050;-75
2021/12/06 02:07:31;;;;;;;17.20;5.72;;;;;;;1.83;100.00;101089.22;6224246;28;20050;-75
2021/12/06 02:10:33;;;;;;;14.00;7.10;;;;;;;1.78;100.00;101091.88;6224922;28;20057;-75
2021/12/06 02:13:42;;;;;;;17.13;6.53;;;;;;;1.70;100.00;101091.09;6225149;28;20075;-74
2021/12/06 02:16:59;;;;;;;15.90;7.07;;;;;;;1.70;100.00;101084.19;6225338;28;20053;-74
2021/12/06 02:20:05;;;;;;;18.20;6.53;;;;;;;1.75;100.00;101084.97;6224788;28;20053;-74
2021/12/06 02:23:08;;;;;;;16.73;7.57;;;;;;;1.76;100.00;101085.81;6225027;28;20050;-75
2021/12/06 02:26:09;;;;;;;16.25;6.28;;;;;;;1.80;100.00;101084.06;6224994;28;20050;-75
2021/12/06 02:29:11;;;;;;;14.98;5.70;;;;;;;1.81;100.00;101094.41;6224951;28;20046;-74
2021/12/06 02:32:13;;;;;;;15.60;5.82;;;;;;;1.81;100.00;101093.56;6224575;28;20049;-75
2021/12/06 02:35:18;;;;;;;15.07;6.35;;;;;;;1.77;100.00;101091.00;6222792;28;20532;-75
2021/12/06 02:38:21;;;;;;;17.10;5.03;;;;;;;1.75;100.00;101091.91;6223994;28;20525;-74
2021/12/06 02:41:23;;;;;;;12.98;5.35;;;;;;;1.80;100.00;101094.44;6224209;28;20501;-75
2021/12/06 02:44:24;;;;;;;10.73;4.75;;;;;;;1.77;100.00;101093.59;6224253;28;20421;-75
2021/12/06 02:47:26;;;;;;;14.73;5.55;;;;;;;1.80;100.00;101095.28;6224274;28;20057;-75
2021/12/06 02:50:32;;;;;;;13.00;5.45;;;;;;;1.78;100.00;101091.88;6223921;28;20417;-75
2021/12/06 02:53:37;;;;;;;19.65;6.80;;;;;;;1.79;100.00;101083.22;6224090;28;20501;-75
2021/12/06 02:56:52;;;;;;;20.88;7.10;;;;;;;1.74;100.00;101087.59;6224601;28;20057;-74
2021/12/06 02:59:53;;;;;;;12.27;5.43;;;;;;;1.75;100.00;101084.13;6223841;28;20050;-74
2021/12/06 03:02:55;;;;;;;15.38;5.78;;;;;;;1.77;100.00;101087.53;6221090;28;20091;-74
2021/12/06 03:05:56;;;;;;;20.02;5.82;;;;;;;1.79;100.00;101078.03;6223477;28;20053;-75
2021/12/06 03:09:06;;;;;;;20.23;6.68;;;;;;;1.82;100.00;101087.47;6215514;28;20113;-74
2021/12/06 03:12:09;;;;;;;;;;;;;;;1.84;100.00;101096.13;6217574;28;20053;-75
2021/12/06 03:15:11;;;;;;;11.38;5.88;;;;;;;1.76;100.00;101097.03;6222241;28;19926;-75
2021/12/06 03:18:12;;;;;;;18.13;6.28;;;;;;;1.75;100.00;101108.28;6216555;28;20054;-75
2021/12/06 03:21:15;;;;;;;15.48;6.35;;;;;;;1.74;100.00;101119.53;6222212;28;20045;-75
2021/12/06 03:24:18;;;;;;;11.20;4.90;;;;;;;1.76;100.00;101128.13;6215208;28;20046;-75
2021/12/06 03:27:20;;;;;;;23.17;7.03;;;;;;;1.78;100.00;101125.56;6223424;28;20416;-75
2021/12/06 03:30:21;;;;;;;9.88;4.53;;;;;;;1.81;100.00;101124.63;6223258;28;20049;-74
2021/12/06 03:33:22;;;;;;;14.30;5.65;;;;;;;1.81;100.00;101125.50;6210787;28;20042;-75
2021/12/06 03:36:27;;;;;;;18.38;7.25;;;;;;;1.76;100.00;101130.72;6199001;28;20050;-74
2021/12/06 03:39:34;;;;;;;15.02;6.20;;;;;;;1.74;100.00;101126.47;6198487;28;20054;-75
2021/12/06 03:42:36;;;;;;;15.50;6.95;;;;;;;1.78;100.00;101130.72;6198772;28;20057;-75
2021/12/06 03:45:37;;;;;;;18.63;5.82;;;;;;;1.78;100.00;101131.59;6198639;28;20489;-74
2021/12/06 03:48:39;;;;;;;13.90;5.63;;;;;;;1.81;100.00;101135.84;6197991;28;20058;-74
2021/12/06 03:51:41;;;;;;;11.73;4.85;;;;;;;1.81;100.00;101135.84;6198305;28;20417;-75
2021/12/06 03:54:44;;;;;;;22.08;6.75;;;;;;;1.81;100.00;101135.00;6198745;28;20053;-75
2021/12/06 03:57:45;;;;;;;14.82;5.80;;;;;;;1.80;100.00;101139.34;6198664;28;20057;-75
2021/12/06 04:00:47;;;;;;;18.90;5.57;;;;;;;1.76;100.00;101137.66;6198718;28;20058;-74
2021/12/06 04:03:48;;;;;;;11.95;4.72;;;;;;;1.81;100.00;101143.63;6211090;28;20053;-75
2021/12/06 04:06:50;;;;;;;18.58;6.75;;;;;;;1.77;100.00;101148.00;6222643;28;20103;-74
2021/12/06 04:09:53;;;;;;;18.48;6.28;;;;;;;1.79;100.00;101145.41;6222347;28;20052;-74
2021/12/06 04:12:57;;;;;;;16.48;6.03;;;;;;;1.79;100.00;101140.22;6222287;28;20497;-74
2021/12/06 04:15:59;;;;;;;14.85;5.57;;;;;;;1.84;100.00;101142.75;6222610;28;20141;-74
2021/12/06 04:19:00;;;;;;;17.13;5.88;;;;;;;1.78;100.00;101143.69;6220719;28;20046;-74
2021/12/06 04:22:03;;;;;;;16.15;5.95;;;;;;;1.69;100.00;101144.63;6222350;28;20061;-75
2021/12/06 04:25:09;;;;;;;18.45;6.93;;;;;;;1.68;100.00;101155.88;6222257;28;20042;-74
2021/12/06 04:28:14;;;;;;;17.17;6.80;;;;;;;1.71;100.00;101165.34;6222622;28;20144;-74
2021/12/06 04:31:17;;;;;;;19.67;6.57;;;;;;;1.67;100.00;101171.41;6221968;28;20412;-75
2021/12/06 04:34:19;;;;;;;15.60;6.72;;;;;;;1.69;100.00;101180.06;6222430;28;20050;-74
2021/12/06 04:37:20;;;;;;;18.13;5.88;;;;;;;1.70;100.00;101174.84;6222254;28;20061;-75
2021/12/06 04:40:23;;;;;;;20.85;5.63;;;;;;;1.68;100.00;101180.91;6221482;28;20054;-74
2021/12/06 04:43:25;;;;;;;22.05;6.75;;;;;;;1.71;100.00;101181.75;6221993;28;20049;-74
2021/12/06 04:46:26;;;;;;;21.00;6.00;;;;;;;1.73;100.00;101177.41;6221949;28;20049;-75
2021/12/06 04:49:29;;;;;;;14.40;5.40;;;;;;;1.74;100.00;101189.50;6222309;28;20056;-74
2021/12/06 04:52:30;;;;;;;12.07;6.15;;;;;;;1.70;100.00;101187.81;6221689;28;20049;-74
2021/12/06 04:55:38;;;;;;;14.90;6.38;;;;;;;1.74;100.00;101181.72;6222173;28;20046;-74
2021/12/06 04:58:48;;;;;;;18.20;6.63;;;;;;;1.75;100.00;101193.78;6222021;28;20054;-74
2021/12/06 05:01:50;;;;;;;;;;;;;;;1.76;100.00;101187.72;6227102;28;20053;-74
2021/12/06 05:04:54;;;;;;;16.58;5.97;;;;;;;1.80;100.00;101192.88;6219338;28;19925;-74
2021/12/06 05:08:00;;;;;;;18.25;7.25;;;;;;;1.72;100.00;101196.41;6218484;28;20042;-74
2021/12/06 05:11:04;;;;;;;15.07;6.57;;;;;;;1.68;100.00;101210.28;6218312;28;20053;-74
2021/12/06 05:14:06;;;;;;;24.67;7.88;;;;;;;1.68;100.00;101212.88;6226573;28;20042;-74
2021/12/06 05:17:08;;;;;;;18.17;5.65;;;;;;;1.71;100.00;101210.22;6226436;28;20056;-74
2021/12/06 05:20:12;;;;;;;16.40;5.90;;;;;;;1.72;100.00;101214.53;6218090;28;20519;-74
2021/12/06 05:23:14;;;;;;;18.88;7.15;;;;;;;1.72;100.00;101216.28;6226201;28;20050;-74
2021/12/06 05:26:17;;;;;;;21.40;7.47;;;;;;;1.72;100.00;101224.03;6226497;28;20057;-74
2021/12/06 05:29:24;;;;;;;16.27;6.55;;;;;;;1.72;100.00;101230.09;6220072;28;20049;-74
2021/12/06 05:32:30;;;;;;;17.63;6.25;;;;;;;1.76;100.00;101236.09;6201995;28;20050;-74
2021/12/06 05:35:31;;;;;;;16.02;6.15;;;;;;;1.74;100.00;101230.94;6201752;28;20054;-74
2021/12/06 05:38:33;;;;;;;20.77;6.70;;;;;;;1.75;100.00;101231.78;6201581;28;20066;-74
2021/12/06 05:41:36;;;;;;;12.75;5.53;;;;;;;1.77;100.00;101227.44;6201497;28;20058;-74
2021/12/06 05:44:38;;;;;;;14.32;5.53;;;;;;;1.80;100.00;101237.78;6201382;28;20046;-74
2021/12/06 05:47:39;;;;;;;15.07;5.90;;;;;;;1.83;100.00;101245.56;6201650;28;20054;-74
2021/12/06 05:50:41;;;;;;;22.13;7.22;;;;;;;1.80;100.00;101250.75;6201071;28;20564;-74
2021/12/06 05:53:42;;;;;;;14.93;5.80;;;;;;;1.78;100.00;101250.78;6201569;28;20046;-74
2021/12/06 05:56:45;;;;;;;14.95;5.80;;;;;;;1.75;100.00;101244.75;6201231;28;20050;-74
2021/12/06 05:59:47;;;;;;;21.80;7.30;;;;;;;1.70;100.00;101251.72;6213933;28;20052;-74
2021/12/06 06:02:49;;;;;;;20.30;5.90;;;;;;;1.74;100.00;101253.41;6225425;28;20050;-74
2021/12/06 06:05:52;;;;;;;16.83;6.20;;;;;;;1.74;100.00;101264.63;6225295;28;20049;-74
2021/12/06 06:08:53;;;;;;;18.75;5.57;;;;;;;1.73;100.00;101268.09;6225256;28;20054;-74
2021/12/06 06:11:56;;;;;;;16.15;6.07;;;;;;;1.77;100.00;101274.09;6223012;28;20421;-74
2021/12/06 06:14:57;;;;;;;23.70;6.35;;;;;;;1.76;100.00;101273.22;6216990;28;20053;-74
2021/12/06 06:18:01;;;;;;;21.48;7.10;;;;;;;1.70;100.00;101275.03;6224911;28;20049;-74
2021/12/06 06:21:02;;;;;;;20.50;6.97;;;;;;;1.71;100.00;101267.22;6216582;28;20426;-74
2021/12/06 06:24:04;;;;;;;22.00;7.00;;;;;;;1.74;100.00;101274.13;6224826;28;20042;-74
2021/12/06 06:27:08;;;;;;;25.33;7.40;;;;;;;1.78;100.00;101281.88;6216753;28;20540;-74
2021/12/06 06:30:11;;;;;;;17.67;6.75;;;;;;;1.77;100.00;101290.53;6211911;28;20056;-75
2021/12/06 06:33:12;;;;;;;16.25;6.13;;;;;;;1.80;100.00;101292.22;6200503;28;20057;-74
2021/12/06 06:36:14;;;;;;;18.35;7.45;;;;;;;1.76;100.00;101293.97;6200276;28;20050;-74
2021/12/06 06:39:19;;;;;;;25.33;8.18;;;;;;;1.78;100.00;101292.22;6205463;28;20053;-74
2021/12/06 06:42:23;;;;;;;23.90;7.53;;;;;;;1.77;100.00;101298.28;6200144;28;20581;-74
2021/12/06 06:45:24;;;;;;;24.65;7.70;;;;;;;1.79;100.00;101303.44;6209858;28;20053;-75
2021/12/06 06:48:25;;;;;;;20.73;7.68;;;;;;;1.76;100.00;101306.06;6217368;28;20045;-74
2021/12/06 06:51:28;;;;;;;26.50;7.15;;;;;;;1.79;100.00;101313.81;6223540;28;20524;-75
2021/12/06 06:54:29;;;;;;;24.40;7.40;;;;;;;1.76;100.00;101312.09;6215954;28;20197;-74
2021/12/06 06:57:32;;;;;;;18.65;8.18;;;;;;;1.69;100.00;101312.19;6224177;28;20061;-74
2021/12/06 07:00:37;;;;;;;14.27;6.57;;;;;;;1.66;100.00;101312.19;6223010;28;20046;-74
2021/12/06 07:03:38;;;;;;;22.20;8.18;;;;;;;1.61;100.00;101327.75;6222837;28;20050;-74
2021/12/06 07:06:40;;;;;;;22.02;8.07;;;;;;;1.60;100.00;101323.47;6218065;28;20518;-74
2021/12/06 07:09:43;;;;;;;24.13;7.70;;;;;;;1.62;100.00;101321.72;6218208;28;20062;-74
2021/12/06 07:12:48;;;;;;;14.13;6.38;;;;;;;1.64;100.00;101319.97;6215024;28;20042;-74
2021/12/06 07:15:50;;;;;;;22.05;8.43;;;;;;;1.66;100.00;101318.22;6204218;28;20104;-74
2021/12/06 07:18:51;;;;;;;22.70;6.47;;;;;;;1.65;100.00;101320.84;6215448;28;20053;-74
2021/12/06 07:21:53;;;;;;;20.20;6.70;;;;;;;1.67;100.00;101314.75;6223368;28;20050;-74
2021/12/06 07:24:54;;;;;;;22.08;6.55;;;;;;;1.67;100.00;101309.56;6218575;28;20050;-74
2021/12/06 07:27:59;;;;;;;28.90;8.25;;;;;;;1.69;100.00;101312.19;6219330;28;20057;-74
2021/12/06 07:31:02;;;;;;;25.58;7.93;;;;;;;1.68;100.00;101310.44;6211008;28;20050;-74
2021/12/06 07:34:03;;;;;;;21.05;7.43;;;;;;;1.68;100.00;101321.69;6199165;28;20053;-74
2021/12/06 07:37:05;;;;;;;19.52;8.13;;;;;;;1.69;100.00;101315.63;6198952;28;20053;-74
2021/12/06 07:40:10;;;;;;;26.05;9.00;;;;;;;1.70;100.00;101314.75;6198588;28;20054;-74
2021/12/06 07:43:13;;;;;;;16.55;5.93;;;;;;;1.68;100.00;101307.84;6210130;28;20049;-74
2021/12/06 07:46:16;;;;;;;21.50;7.50;;;;;;;1.68;100.00;101320.78;6210611;28;20046;-74
2021/12/06 07:49:17;;;;;;;24.13;7.75;;;;;;;1.67;100.00;101319.94;6214045;28;20050;-73
2021/12/06 07:52:18;;;;;;;17.60;6.60;;;;;;;1.63;100.00;101322.56;6212262;28;20050;-74
2021/12/06 07:55:22;;;;;;;18.08;6.32;;;;;;;1.66;100.00;101315.63;6219948;28;20060;-74
2021/12/06 07:58:25;;;;;;;20.70;6.63;;;;;;;1.65;100.00;101315.66;6221566;28;20494;-74
2021/12/06 08:01:26;;;;;;;19.45;7.60;;;;;;;1.61;100.00;101308.78;6216751;28;20416;-74
2021/12/06 08:04:28;;;;;;;20.35;7.18;;;;;;;1.61;100.00;101319.13;6214211;28;20042;-73
2021/12/06 08:07:29;;;;;;;22.67;8.05;;;;;;;1.63;100.00;101325.16;6222858;28;20049;-74
2021/12/06 08:10:31;;;;;;;20.08;6.93;;;;;;;1.57;100.00;101326.06;6222464;28;20054;-73
2021/12/06 08:13:36;;;;;;;24.92;6.45;;;;;;;1.57;100.00;101323.47;6216247;28;20042;-73
2021/12/06 08:16:43;;;;;;;21.17;8.05;;;;;;;1.59;100.00;101315.69;6213898;28;20064;-73
2021/12/06 08:19:44;;;;;;;16.92;7.72;;;;;;;1.51;100.00;101308.84;6217402;28;20045;-74
2021/12/06 08:22:46;;;;;;;19.20;6.25;;;;;;;1.59;100.00;101305.31;6222261;28;20054;-74
2021/12/06 08:25:49;;;;;;;14.90;6.68;;;;;;;1.57;100.00;101304.50;6214047;28;20053;-74
2021/12/06 08:28:54;;;;;;;15.77;7.50;;;;;;;1.53;100.00;101309.69;6222268;28;20045;-73
2021/12/06 08:31:56;;;;;;;21.75;7.43;;;;;;;1.55;100.00;101306.25;6215807;28;20498;-73
2021/12/06 08:34:57;;;;;;;18.73;7.47;;;;;;;1.56;100.00;101300.19;6197361;28;20047;-74
2021/12/06 08:38:00;;;;;;;16.23;7.32;;;;;;;1.54;100.00;101300.19;6197877;28;20057;-74
2021/12/06 08:41:07;;;;;;;14.30;6.10;;;;;;;1.53;100.00;101306.22;6197771;28;20173;-73
2021/12/06 08:44:09;;;;;;;15.68;6.30;;;;;;;1.47;100.00;101308.88;6208693;28;20050;-72
2021/12/06 08:47:11;;;;;;;12.10;5.68;;;;;;;1.49;100.00;101309.72;6204436;28;20059;-74
2021/12/06 08:50:19;;;;;;;21.60;6.88;;;;;;;1.51;100.00;101305.41;6197322;28;20047;-73
2021/12/06 08:53:20;;;;;;;19.55;6.65;;;;;;;1.46;100.00;101308.03;6197884;28;20058;-74
2021/12/06 08:56:22;;;;;;;18.13;8.75;;;;;;;1.46;100.00;101304.56;6197627;28;20050;-74
2021/12/06 08:59:26;;;;;;;22.05;7.15;;;;;;;1.51;100.00;101303.66;6197658;28;20054;-74
2021/12/06 09:02:27;;;;;;;23.55;6.82;;;;;;;1.50;100.00;101306.28;6218950;28;20057;-74
2021/12/06 09:05:31;;;;;;;13.02;7.15;;;;;;;1.55;100.00;101314.88;6213148;28;20042;-71
2021/12/06 09:08:33;;;;;;;17.77;6.93;;;;;;;1.52;100.00;101317.47;6219830;28;20429;-73
2021/12/06 09:11:35;;;;;;;14.73;6.05;;;;;;;1.55;100.00;101316.59;6215243;28;20046;-73
2021/12/06 09:14:38;;;;;;;21.52;6.78;;;;;;;1.55;100.00;101309.69;6214219;28;20049;-73
2021/12/06 09:17:40;;;;;;;15.05;6.90;;;;;;;1.63;100.00;101309.59;6219106;28;20093;-73
2021/12/06 09:20:45;;;;;;;21.38;6.82;;;;;;;1.56;100.00;101310.53;6215971;28;20057;-73
2021/12/06 09:23:47;;;;;;;21.83;8.88;;;;;;;1.57;100.00;101304.50;6221894;28;20528;-74
2021/12/06 09:26:49;;;;;;;20.73;6.97;;;;;;;1.56;100.00;101308.81;6220874;28;20042;-73
2021/12/06 09:29:55;;;;;;;21.73;8.73;;;;;;;1.58;100.00;101317.41;6219587;28;20049;-73
2021/12/06 09:32:58;;;;;;;15.73;6.88;;;;;;;1.55;100.00;101314.88;6221604;28;20049;-73
2021/12/06 09:36:00;;;;;;;15.35;6.53;;;;;;;1.52;100.00;101323.50;6221066;28;20042;-71
2021/12/06 09:39:03;;;;;;;29.63;6.70;;;;;;;1.57;100.00;101320.88;6221547;28;20057;-72
2021/12/06 09:42:06;;;;;;;17.63;6.85;;;;;;;1.56;100.00;101324.34;6212712;28;20066;-72
2021/12/06 09:45:14;;;;;;;22.27;6.82;;;;;;;1.60;100.00;101328.66;6221457;28;20509;-72
2021/12/06 09:48:17;;;;;;;16.13;6.75;;;;;;;1.59;100.00;101326.94;6224610;28;20050;-71
2021/12/06 09:51:24;;;;;;;13.48;5.72;;;;;;;1.63;100.00;101328.59;6225611;28;20054;-71
2021/12/06 09:54:28;;;;;;;17.35;8.05;;;;;;;1.62;100.00;101318.25;6225217;28;20046;-71
2021/12/06 09:57:29;;;;;;;22.35;6.20;;;;;;;1.61;100.00;101326.91;6225206;28;20098;-72
2021/12/06 10:00:43;;;;;;;19.35;8.40;;;;;;;1.61;100.00;101330.34;6211400;28;20054;-72
2021/12/06 10:03:47;;;;;;;27.92;8.35;;;;;;;1.68;100.00;101324.28;6225242;28;20531;-72
2021/12/06 10:06:50;;;;;;;16.10;6.63;;;;;;;1.72;100.00;101310.41;6225077;28;20041;-71
2021/12/06 10:09:53;;;;;;;18.67;6.00;;;;;;;1.72;100.00;101310.41;6218478;28;20046;-72
2021/12/06 10:12:56;;;;;;;16.33;6.65;;;;;;;1.75;100.00;101312.13;6212669;28;20080;-72
2021/12/06 10:15:58;;;;;;;18.67;7.07;;;;;;;1.80;100.00;101299.13;6214907;28;20520;-71
2021/12/06 10:19:00;;;;;;;19.58;6.18;;;;;;;1.86;100.00;101299.06;6216176;28;20050;-71
2021/12/06 10:22:01;;;;;;;12.73;6.07;;;;;;;1.90;100.00;101292.97;6213935;28;20046;-72
2021/12/06 10:25:05;;;;;;;15.85;7.05;;;;;;;1.90;100.00;101290.38;6213268;28;20395;-71
2021/12/06 10:28:07;;;;;;;19.92;6.93;;;;;;;1.93;100.00;101280.00;6220545;28;20409;-72
2021/12/06 10:31:12;;;;;;;17.80;7.03;;;;;;;1.98;100.00;101278.22;6212761;28;20126;-73
2021/12/06 10:34:16;;;;;;;14.52;6.32;;;;;;;1.86;100.00;101260.19;6211780;28;20546;-71
2021/12/06 10:37:29;;;;;;;14.30;5.95;;;;;;;1.88;100.00;101261.91;6210081;28;20054;-72
2021/12/06 10:40:33;;;;;;;16.08;7.45;;;;;;;1.92;100.00;101253.22;6211759;28;20049;-72
2021/12/06 10:43:37;;;;;;;20.85;7.72;;;;;;;1.94;100.00;101246.28;6211133;28;20423;-71
2021/12/06 10:46:42;;;;;;;19.13;6.63;;;;;;;1.93;100.00;101236.81;6209370;28;20042;-72
2021/12/06 10:49:47;;;;;;;16.60;6.95;;;;;;;1.92;100.00;101229.91;6211765;28;20512;-71
2021/12/06 10:52:54;;;;;;;16.08;7.78;;;;;;;1.95;100.00;101227.31;6209747;28;20050;-72
2021/12/06 10:55:57;;;;;;;26.65;8.00;;;;;;;1.97;100.00;101235.03;6209874;28;20050;-72
2021/12/06 10:59:07;;;;;;;16.70;6.55;;;;;;;1.96;100.00;101229.00;6208512;28;20050;-72
2021/12/06 11:02:12;;;;;;;23.05;6.93;;;;;;;1.97;100.00;101230.72;6222580;28;20050;-72
2021/12/06 11:05:22;;;;;;;21.67;7.50;;;;;;;1.98;100.00;101223.81;6223457;28;20053;-72
2021/12/06 11:08:24;;;;;;;21.70;8.35;;;;;;;1.99;100.00;101230.69;6222347;28;20049;-74
2021/12/06 11:11:29;;;;;;;18.77;7.30;;;;;;;1.97;100.00;101229.88;6223667;28;20057;-74
2021/12/06 11:14:33;;;;;;;22.33;7.10;;;;;;;2.01;100.00;101224.63;6223834;28;20050;-75
2021/12/06 11:17:36;;;;;;;31.40;9.00;;;;;;;2.02;100.00;101225.50;6215418;28;20061;-74
2021/12/06 11:20:47;;;;;;;20.52;6.53;;;;;;;2.07;100.00;101230.63;6223443;28;20053;-74
2021/12/06 11:24:01;;;;;;;20.00;7.50;;;;;;;2.03;100.00;101232.38;6219539;28;20517;-74
2021/12/06 11:27:06;;;;;;;17.15;7.35;;;;;;;1.99;100.00;101230.69;6220903;28;20421;-73
2021/12/06 11:30:11;;;;;;;20.25;6.63;;;;;;;2.05;100.00;101224.59;6221515;28;20053;-74
2021/12/06 11:33:28;;;;;;;19.35;7.03;;;;;;;2.02;100.00;101217.72;6216496;28;20125;-74
2021/12/06 11:36:31;;;;;;;19.60;7.88;;;;;;;2.03;100.00;101222.88;6198997;28;20050;-74
2021/12/06 11:39:32;;;;;;;18.50;7.10;;;;;;;2.08;100.00;101217.63;6198984;28;20132;-73
2021/12/06 11:42:48;;;;;;;26.05;7.75;;;;;;;2.10;100.00;101226.28;6216834;28;20045;-74
2021/12/06 11:45:52;;;;;;;19.75;6.28;;;;;;;2.09;100.00;101221.97;6215305;28;20050;-74
2021/12/06 11:48:55;;;;;;;25.70;7.95;;;;;;;2.11;100.00;101227.97;6219093;28;20781;-75
2021/12/06 11:51:57;;;;;;;23.00;7.30;;;;;;;2.11;100.00;101219.34;6219918;28;20420;-73
2021/12/06 11:55:02;;;;;;;15.70;6.32;;;;;;;2.16;100.00;101217.56;6222915;28;20057;-74
2021/12/06 11:58:04;;;;;;;20.50;7.57;;;;;;;2.19;100.00;101213.19;6223041;28;20053;-74
2021/12/06 12:01:10;;;;;;;18.33;8.13;;;;;;;2.22;100.00;101207.09;6207745;28;20565;-74
2021/12/06 12:04:15;;;;;;;21.08;7.63;;;;;;;2.21;100.00;101208.84;6198445;28;20517;-74
2021/12/06 12:07:16;;;;;;;22.23;7.20;;;;;;;2.26;100.00;101206.19;6198299;28;20042;-74
2021/12/06 12:10:28;;;;;;;15.55;7.18;;;;;;;2.25;100.00;101207.09;6197285;28;20054;-74
2021/12/06 12:13:32;;;;;;;22.55;7.30;;;;;;;2.31;100.00;101208.75;6198231;28;20061;-74
2021/12/06 12:16:33;;;;;;;15.95;6.40;;;;;;;2.31;100.00;101191.44;6198673;28;20050;-74
2021/12/06 12:19:37;;;;;;;19.52;6.53;;;;;;;2.29;100.00;101194.06;6210398;28;20497;-74
2021/12/06 12:22:40;;;;;;;18.42;7.75;;;;;;;2.27;100.00;101182.88;6216118;28;20038;-75
2021/12/06 12:25:49;;;;;;;18.00;7.40;;;;;;;2.32;100.00;101180.22;6222359;28;20053;-74
2021/12/06 12:28:59;;;;;;;12.75;5.70;;;;;;;2.28;100.00;101183.72;6222528;28;20054;-74
2021/12/06 12:32:02;;;;;;;29.25;7.80;;;;;;;2.21;100.00;101190.69;6220626;28;20060;-74
2021/12/06 12:35:08;;;;;;;18.67;6.15;;;;;;;2.19;100.00;101186.41;6221936;28;20053;-74
2021/12/06 12:38:11;;;;;;;19.20;6.43;;;;;;;2.15;100.00;101187.34;6222419;28;20061;-73
2021/12/06 12:41:16;;;;;;;25.40;7.85;;;;;;;2.24;100.00;101184.63;6221873;28;20046;-73
2021/12/06 12:44:17;;;;;;;24.13;7.05;;;;;;;2.24;100.00;101179.44;6222330;28;20057;-74
2021/12/06 12:47:22;;;;;;;17.13;6.32;;;;;;;2.26;100.00;101177.69;6221952;28;20053;-73
2021/12/06 12:50:29;;;;;;;20.27;6.13;;;;;;;2.34;100.00;101178.44;6222274;28;20049;-73
2021/12/06 12:53:45;;;;;;;19.80;6.70;;;;;;;2.44;100.00;101177.44;6222050;28;20099;-74
2021/12/06 12:56:50;;;;;;;21.13;7.57;;;;;;;2.46;100.00;101172.25;6222275;28;20057;-73
2021/12/06 12:59:56;;;;;;;19.65;6.47;;;;;;;2.51;100.00;101166.13;6222027;28;20046;-74
2021/12/06 13:02:57;;;;;;;13.75;5.68;;;;;;;2.52;100.00;101165.25;6197579;28;20416;-74
2021/12/06 13:06:19;;;;;;;21.63;8.32;;;;;;;2.52;100.00;101149.66;6201278;28;20055;-74
2021/12/06 13:09:28;;;;;;;14.80;6.13;;;;;;;2.45;100.00;101153.25;6212744;28;20398;-74
2021/12/06 13:12:31;;;;;;;18.30;6.65;;;;;;;2.42;100.00;101149.81;6212090;28;20058;-74
2021/12/06 13:15:47;;;;;;;17.58;6.47;;;;;;;2.40;100.00;101148.97;6222175;28;20050;-74
2021/12/06 13:19:01;;;;;;;18.15;6.63;;;;;;;2.47;100.00;101140.25;6217770;28;20038;-74
2021/12/06 13:22:10;;;;;;;17.58;5.07;;;;;;;2.61;100.00;101137.47;6225046;28;20046;-75
2021/12/06 13:25:14;;;;;;;15.90;6.60;;;;;;;2.63;100.00;101146.06;6218307;28;20053;-75
2021/12/06 13:28:15;;;;;;;12.60;5.65;;;;;;;2.70;100.00;101153.75;6219942;28;20304;-75
2021/12/06 13:31:24;;;;;;;13.95;6.97;;;;;;;2.62;100.00;101145.22;6217832;28;20053;-75
2021/12/06 13:34:29;;;;;;;14.52;5.45;;;;;;;2.56;100.00;101155.69;6226654;28;20050;-74
2021/12/06 13:37:31;;;;;;;14.13;5.53;;;;;;;2.53;100.00;101150.53;6226214;28;20096;-75
2021/12/06 13:40:37;;;;;;;20.45;6.63;;;;;;;2.50;100.00;101156.63;6208304;28;20061;-75
2021/12/06 13:43:43;;;;;;;23.27;6.95;;;;;;;2.45;100.00;101154.94;6201930;28;20054;-75
2021/12/06 13:46:45;;;;;;;12.55;6.43;;;;;;;2.43;100.00;101139.44;6211282;28;20128;-75
2021/12/06 13:49:56;;;;;;;18.05;5.55;;;;;;;2.44;100.00;101132.50;6217772;28;20049;-75
2021/12/06 13:52:58;;;;;;;12.00;5.57;;;;;;;2.36;100.00;101129.16;6212761;28;20054;-75
2021/12/06 13:56:03;;;;;;;12.50;5.85;;;;;;;2.29;100.00;101124.03;6216638;28;20038;-75
2021/12/06 13:59:04;;;;;;;15.18;6.88;;;;;;;2.28;100.00;101118.91;6225910;28;20053;-75
2021/12/06 14:02:07;;;;;;;12.40;5.45;;;;;;;2.24;100.00;101123.25;6205240;28;20046;-75
2021/12/06 14:05:12;;;;;;;17.50;6.63;;;;;;;2.15;100.00;101110.41;6213573;28;20489;-75
2021/12/06 14:08:17;;;;;;;13.38;5.43;;;;;;;2.13;100.00;101104.38;6217352;28;20054;-77